Cambridge, Canada
Current Conditions -  °F | °C
As of 7:17 PM on Wednesday 26 Nov 2014 (Local Time) from CYKF Reporting Station
Overcast Overcast  
Wind Chill: 25°   Ceiling: 2900
Heat Index: 30°   Visibility: 9mi
Dew Point: 25°   Wind: 5mph
Humidity: 80%   Direction: 50°NE
Pressure: 30.05"   Gusts: NA
Location:  43.38°N, 80.32°W
Report Text: CYKF 270017Z AUTO 05004KT 9SM OVC029 M01/M04 A3005 RMK SLP190
Loading
Personal Weather Stations






























Interactive Weather Map New forecast layout! Learn more

10-Day Weather Forecast

Advertisements
Track Severe Weather on mobile